Time;durP1;ratioP1;P1;durP2;ratioP2;P2;SDS_P1;SDS_P2;PMS_P1;PMS_P2;Temp;Humidity;BMP_temperature;BMP_pressure;BME280_temperature;BME280_humidity;BME280_pressure;Samples;Min_cycle;Max_cycle;Signal;HPM_P1;HPM_P2
2022/05/17 00:00:54;;;;;;;18.83;13.60;;;;;;;;;;5043662;28;20048;-35
2022/05/17 00:03:20;;;;;;;19.83;14.07;;;;;;;;;;5048176;28;20040;-32
2022/05/17 00:05:47;;;;;;;17.13;13.35;;;;;;;;;;5052297;28;20502;-33
2022/05/17 00:08:14;;;;;;;21.83;14.27;;;;;;;;;;5052078;28;20124;-32
2022/05/17 00:10:40;;;;;;;17.55;13.57;;;;;;;;;;5049261;28;20036;-31
2022/05/17 00:13:06;;;;;;;14.57;12.32;;;;;;;;;;5052007;28;20041;-32
2022/05/17 00:15:33;;;;;;;20.23;14.18;;;;;;;;;;5046801;28;20127;-32
2022/05/17 00:17:59;;;;;;;19.30;15.43;;;;;;;;;;5035461;28;20120;-31
2022/05/17 00:20:25;;;;;;;19.65;14.40;;;;;;;;;;5047345;28;20041;-32
2022/05/17 00:22:52;;;;;;;14.63;12.85;;;;;;;;;;5037160;28;20546;-33
2022/05/17 00:25:19;;;;;;;17.38;14.13;;;;;;;;;;5030940;28;20045;-32
2022/05/17 00:27:45;;;;;;;21.02;13.65;;;;;;;;;;5051851;28;20047;-33
2022/05/17 00:30:11;;;;;;;20.42;13.02;;;;;;;;;;5051494;28;20044;-33
2022/05/17 00:32:37;;;;;;;14.05;12.32;;;;;;;;;;5043504;28;20063;-33
2022/05/17 00:35:04;;;;;;;15.13;13.52;;;;;;;;;;5031954;28;20045;-32
2022/05/17 00:37:30;;;;;;;16.52;13.27;;;;;;;;;;5034725;28;20041;-31
2022/05/17 00:39:56;;;;;;;16.42;13.25;;;;;;;;;;5033135;28;20046;-32
2022/05/17 00:42:22;;;;;;;18.98;13.05;;;;;;;;;;5031819;28;20044;-32
2022/05/17 00:44:49;;;;;;;19.00;13.57;;;;;;;;;;5034944;28;20037;-32
2022/05/17 00:47:21;;;;;;;14.60;12.60;;;;;;;;;;5032610;28;20064;-33
2022/05/17 00:50:00;;;;;;;17.17;12.48;;;;;;;;;;5015988;28;20041;-33
2022/05/17 00:52:46;;;;;;;18.65;12.77;;;;;;;;;;5033588;28;20115;-34
2022/05/17 00:55:16;;;;;;;14.75;12.13;;;;;;;;;;5048266;28;20099;-34
2022/05/17 00:57:46;;;;;;;18.55;13.52;;;;;;;;;;5042100;28;20051;-33
2022/05/17 01:00:14;;;;;;;19.50;12.88;;;;;;;;;;5041719;28;20037;-33
2022/05/17 01:02:42;;;;;;;21.20;13.93;;;;;;;;;;5027007;28;20045;-32
2022/05/17 01:05:08;;;;;;;16.65;12.60;;;;;;;;;;5051828;28;20115;-31
2022/05/17 01:07:40;;;;;;;19.30;12.15;;;;;;;;;;5042244;28;20044;-33
2022/05/17 01:10:06;;;;;;;14.70;11.77;;;;;;;;;;5038378;28;20112;-32
2022/05/17 01:12:34;;;;;;;16.17;11.15;;;;;;;;;;5033783;28;20041;-33
2022/05/17 01:15:01;;;;;;;14.75;10.63;;;;;;;;;;5039449;28;20086;-32
2022/05/17 01:17:34;;;;;;;19.25;12.07;;;;;;;;;;5051283;28;20060;-31
2022/05/17 01:20:01;;;;;;;16.80;11.57;;;;;;;;;;5036792;28;20487;-33
2022/05/17 01:22:28;;;;;;;16.98;10.98;;;;;;;;;;5030835;28;20084;-32
2022/05/17 01:24:54;;;;;;;14.68;9.77;;;;;;;;;;5048554;28;20041;-32
2022/05/17 01:27:20;;;;;;;18.02;11.32;;;;;;;;;;5032942;28;20037;-32
2022/05/17 01:29:47;;;;;;;15.77;10.65;;;;;;;;;;5033646;28;20495;-33
2022/05/17 01:32:14;;;;;;;16.48;11.00;;;;;;;;;;5038977;28;20376;-32
2022/05/17 01:34:41;;;;;;;18.73;10.90;;;;;;;;;;5034228;28;20443;-31
2022/05/17 01:37:08;;;;;;;19.05;10.48;;;;;;;;;;5033781;28;20065;-32
2022/05/17 01:39:34;;;;;;;16.00;10.90;;;;;;;;;;5032212;28;20046;-31
2022/05/17 01:42:00;;;;;;;16.15;11.15;;;;;;;;;;5046464;28;20499;-31
2022/05/17 01:44:26;;;;;;;17.63;10.55;;;;;;;;;;5047440;28;20033;-35
2022/05/17 01:46:53;;;;;;;14.63;10.00;;;;;;;;;;5036504;28;20087;-32
2022/05/17 01:49:19;;;;;;;17.45;10.25;;;;;;;;;;5050262;28;20111;-31
2022/05/17 01:51:45;;;;;;;19.27;10.57;;;;;;;;;;5050862;28;20052;-34
2022/05/17 01:54:11;;;;;;;16.65;10.88;;;;;;;;;;5045044;28;20044;-33
2022/05/17 01:56:37;;;;;;;17.40;10.98;;;;;;;;;;5037088;28;20034;-32
2022/05/17 01:59:03;;;;;;;16.52;10.25;;;;;;;;;;5031945;28;20504;-32
2022/05/17 02:01:29;;;;;;;18.35;10.15;;;;;;;;;;5031409;28;20047;-32
2022/05/17 02:03:56;;;;;;;14.73;10.18;;;;;;;;;;5031144;28;20080;-32
2022/05/17 02:06:23;;;;;;;16.00;10.50;;;;;;;;;;5037319;28;20044;-32
2022/05/17 02:08:49;;;;;;;11.77;9.35;;;;;;;;;;5049587;28;20045;-31
2022/05/17 02:11:15;;;;;;;15.80;9.95;;;;;;;;;;5051969;28;20451;-31
2022/05/17 02:13:41;;;;;;;14.27;10.27;;;;;;;;;;5054446;28;20514;-32
2022/05/17 02:16:08;;;;;;;17.20;11.57;;;;;;;;;;5050339;28;20480;-31
2022/05/17 02:18:35;;;;;;;15.55;10.38;;;;;;;;;;5042239;28;20434;-32
2022/05/17 02:21:01;;;;;;;18.55;11.20;;;;;;;;;;5042077;28;20519;-32
2022/05/17 02:23:27;;;;;;;16.65;9.27;;;;;;;;;;5037593;28;20044;-33
2022/05/17 02:25:54;;;;;;;17.05;9.63;;;;;;;;;;5054622;28;20036;-32
2022/05/17 02:28:20;;;;;;;17.10;10.60;;;;;;;;;;5048171;28;20082;-33
2022/05/17 02:30:46;;;;;;;17.55;11.07;;;;;;;;;;5043953;28;20556;-33
2022/05/17 02:33:13;;;;;;;16.00;10.25;;;;;;;;;;5033007;28;20505;-32
2022/05/17 02:35:39;;;;;;;16.73;11.45;;;;;;;;;;5027365;28;20037;-33
2022/05/17 02:38:05;;;;;;;17.45;10.70;;;;;;;;;;5053479;28;20070;-32
2022/05/17 02:40:32;;;;;;;19.13;9.90;;;;;;;;;;5042158;28;20231;-35
2022/05/17 02:42:58;;;;;;;17.13;11.07;;;;;;;;;;5049592;28;20379;-31
2022/05/17 02:45:24;;;;;;;16.33;10.70;;;;;;;;;;5047305;28;20052;-31
2022/05/17 02:47:52;;;;;;;17.73;11.52;;;;;;;;;;5053728;28;20402;-31
2022/05/17 02:50:18;;;;;;;23.98;11.38;;;;;;;;;;5052991;28;20418;-33
2022/05/17 02:52:44;;;;;;;18.75;10.55;;;;;;;;;;5050085;28;20041;-32
2022/05/17 02:55:11;;;;;;;16.92;10.55;;;;;;;;;;5035689;28;20086;-31
2022/05/17 02:57:37;;;;;;;15.32;10.48;;;;;;;;;;5047339;28;20036;-31
2022/05/17 03:03:19;;;;;;;15.75;10.57;;;;;;;;;;5041822;28;20119;-32
2022/05/17 03:05:45;;;;;;;13.80;10.43;;;;;;;;;;5044510;28;20048;-33
2022/05/17 03:08:11;;;;;;;22.65;11.10;;;;;;;;;;5045817;28;20123;-30
2022/05/17 03:10:37;;;;;;;19.48;12.38;;;;;;;;;;5033717;28;20045;-32
2022/05/17 03:13:04;;;;;;;16.45;11.57;;;;;;;;;;5053684;28;20390;-29
2022/05/17 03:15:30;;;;;;;16.88;10.80;;;;;;;;;;5053536;28;20048;-30
2022/05/17 03:17:56;;;;;;;18.60;11.82;;;;;;;;;;5053311;28;20037;-30
2022/05/17 03:20:22;;;;;;;19.92;11.35;;;;;;;;;;5035506;28;20479;-30
2022/05/17 03:22:48;;;;;;;18.00;11.15;;;;;;;;;;5035438;28;20443;-30
2022/05/17 03:25:14;;;;;;;17.02;11.45;;;;;;;;;;5053438;28;20402;-30
2022/05/17 03:27:40;;;;;;;17.67;10.65;;;;;;;;;;5053472;28;20041;-30
2022/05/17 03:30:07;;;;;;;15.88;11.02;;;;;;;;;;5053125;28;20033;-31
2022/05/17 03:32:33;;;;;;;20.13;11.55;;;;;;;;;;5053257;28;20079;-30
2022/05/17 03:34:59;;;;;;;21.65;11.27;;;;;;;;;;5052938;28;20044;-29
2022/05/17 03:37:25;;;;;;;13.63;10.45;;;;;;;;;;5053027;28;20102;-30
2022/05/17 03:39:52;;;;;;;19.77;10.90;;;;;;;;;;5052896;28;20133;-30
2022/05/17 03:42:18;;;;;;;21.40;10.95;;;;;;;;;;5053549;28;20052;-30
2022/05/17 03:44:44;;;;;;;16.73;10.43;;;;;;;;;;5053509;28;20128;-30
2022/05/17 03:47:10;;;;;;;17.88;10.63;;;;;;;;;;5051992;28;20033;-30
2022/05/17 03:49:38;;;;;;;19.17;10.65;;;;;;;;;;5051606;28;20041;-30
2022/05/17 03:52:05;;;;;;;15.15;11.43;;;;;;;;;;5052161;28;20060;-30
2022/05/17 03:54:31;;;;;;;15.85;10.50;;;;;;;;;;5052233;28;20043;-30
2022/05/17 03:56:57;;;;;;;16.42;10.68;;;;;;;;;;5052229;28;20047;-33
2022/05/17 03:59:23;;;;;;;19.73;11.15;;;;;;;;;;5042444;28;20526;-31
2022/05/17 04:01:49;;;;;;;17.02;11.30;;;;;;;;;;5031246;28;20048;-30
2022/05/17 04:04:16;;;;;;;20.70;10.93;;;;;;;;;;5047887;28;20044;-29
2022/05/17 04:06:42;;;;;;;18.35;11.15;;;;;;;;;;5046787;28;20060;-29
2022/05/17 04:09:10;;;;;;;21.20;11.75;;;;;;;;;;5032126;28;20045;-29
2022/05/17 04:11:36;;;;;;;14.88;10.45;;;;;;;;;;5024121;28;20057;-31
2022/05/17 04:14:03;;;;;;;17.92;10.88;;;;;;;;;;5048686;28;20041;-29
2022/05/17 04:16:37;;;;;;;16.85;10.43;;;;;;;;;;5046563;28;20487;-30
2022/05/17 04:19:03;;;;;;;17.58;10.98;;;;;;;;;;5048400;28;20067;-29
2022/05/17 04:21:30;;;;;;;19.63;11.05;;;;;;;;;;5048645;28;20033;-30
2022/05/17 04:23:56;;;;;;;18.35;11.85;;;;;;;;;;5031800;28;20410;-30
2022/05/17 04:26:23;;;;;;;14.52;10.57;;;;;;;;;;5046939;28;20036;-30
2022/05/17 04:28:50;;;;;;;16.75;9.82;;;;;;;;;;5036799;28;20041;-30
2022/05/17 04:31:16;;;;;;;19.80;10.57;;;;;;;;;;5031566;28;20045;-30
2022/05/17 04:33:43;;;;;;;15.85;10.57;;;;;;;;;;5037044;28;20052;-29
2022/05/17 04:36:09;;;;;;;15.40;10.02;;;;;;;;;;5034156;28;20134;-29
2022/05/17 04:38:36;;;;;;;13.43;10.15;;;;;;;;;;5036906;28;20191;-29
2022/05/17 04:41:02;;;;;;;19.60;10.82;;;;;;;;;;5039070;28;20042;-29
2022/05/17 04:43:29;;;;;;;18.80;10.98;;;;;;;;;;5031011;28;20045;-29
2022/05/17 04:45:55;;;;;;;15.23;10.52;;;;;;;;;;5031244;28;20041;-31
2022/05/17 04:48:24;;;;;;;15.18;10.75;;;;;;;;;;5047723;28;20403;-29
2022/05/17 04:50:51;;;;;;;20.05;11.45;;;;;;;;;;5045931;28;20045;-29
2022/05/17 04:53:17;;;;;;;15.65;10.88;;;;;;;;;;5032862;28;20037;-30
2022/05/17 04:55:43;;;;;;;15.43;10.32;;;;;;;;;;5035994;28;20041;-30
2022/05/17 04:58:09;;;;;;;17.25;11.25;;;;;;;;;;5051087;28;20120;-31
2022/05/17 05:00:36;;;;;;;16.50;9.80;;;;;;;;;;5038735;28;20048;-30
2022/05/17 05:03:02;;;;;;;19.23;10.10;;;;;;;;;;5047931;28;20443;-30
2022/05/17 05:05:28;;;;;;;13.27;8.98;;;;;;;;;;5050930;28;20069;-30
2022/05/17 05:07:54;;;;;;;16.75;8.85;;;;;;;;;;5049445;28;20491;-30
2022/05/17 05:10:21;;;;;;;14.93;9.30;;;;;;;;;;5051108;28;20069;-29
2022/05/17 05:12:47;;;;;;;14.93;9.63;;;;;;;;;;5045878;28;20123;-30
2022/05/17 05:15:13;;;;;;;15.13;9.85;;;;;;;;;;5051284;28;20395;-29
2022/05/17 05:17:40;;;;;;;15.40;9.30;;;;;;;;;;5050833;28;20037;-29
2022/05/17 05:20:10;;;;;;;15.23;9.45;;;;;;;;;;5045329;28;20076;-29
2022/05/17 05:22:37;;;;;;;14.10;8.77;;;;;;;;;;5051467;28;20126;-30
2022/05/17 05:25:03;;;;;;;12.85;9.20;;;;;;;;;;5034811;28;20045;-27
2022/05/17 05:27:33;;;;;;;16.08;9.10;;;;;;;;;;5041976;28;20037;-28
2022/05/17 05:30:00;;;;;;;13.77;8.40;;;;;;;;;;5050212;28;20068;-28
2022/05/17 05:32:26;;;;;;;16.05;9.80;;;;;;;;;;5051844;28;20383;-29
2022/05/17 05:34:52;;;;;;;11.80;8.45;;;;;;;;;;5051394;28;20049;-29
2022/05/17 05:37:18;;;;;;;18.00;9.77;;;;;;;;;;5008945;28;20049;-30
2022/05/17 05:39:44;;;;;;;17.45;9.55;;;;;;;;;;5031846;28;20068;-29
2022/05/17 05:42:11;;;;;;;14.43;8.77;;;;;;;;;;5011820;28;20052;-28
2022/05/17 05:44:37;;;;;;;15.65;9.07;;;;;;;;;;5049739;28;20033;-28
2022/05/17 05:47:03;;;;;;;16.35;8.93;;;;;;;;;;5051949;28;20457;-29
2022/05/17 05:49:29;;;;;;;17.52;9.07;;;;;;;;;;5050280;28;20045;-28
2022/05/17 05:51:55;;;;;;;13.27;9.02;;;;;;;;;;5053336;28;20051;-28
2022/05/17 05:54:22;;;;;;;14.20;8.73;;;;;;;;;;5050545;28;20037;-29
2022/05/17 05:56:48;;;;;;;12.52;8.55;;;;;;;;;;5041378;28;20395;-28
2022/05/17 05:59:14;;;;;;;14.88;8.60;;;;;;;;;;5027607;28;20081;-29
2022/05/17 06:01:40;;;;;;;17.05;9.02;;;;;;;;;;5054734;28;20040;-30
2022/05/17 06:04:06;;;;;;;13.10;8.20;;;;;;;;;;5036446;28;20367;-29
2022/05/17 06:06:32;;;;;;;13.98;8.73;;;;;;;;;;5048918;28;20037;-30
2022/05/17 06:08:58;;;;;;;15.55;8.63;;;;;;;;;;5043814;28;20036;-29
2022/05/17 06:11:25;;;;;;;13.07;8.32;;;;;;;;;;5041781;28;20406;-30
2022/05/17 06:13:51;;;;;;;15.73;9.07;;;;;;;;;;5036498;28;20391;-30
2022/05/17 06:16:17;;;;;;;11.98;8.27;;;;;;;;;;5051595;28;20040;-28
2022/05/17 06:18:44;;;;;;;9.77;7.43;;;;;;;;;;5005292;28;20044;-29
2022/05/17 06:21:10;;;;;;;14.38;7.75;;;;;;;;;;5036190;28;20048;-30
2022/05/17 06:23:36;;;;;;;12.25;7.28;;;;;;;;;;5041837;28;20044;-29
2022/05/17 06:26:03;;;;;;;11.65;8.38;;;;;;;;;;5033518;28;20087;-29
2022/05/17 06:28:29;;;;;;;14.23;8.95;;;;;;;;;;5018205;28;20459;-29
2022/05/17 06:30:55;;;;;;;14.75;8.25;;;;;;;;;;5049098;28;20067;-30
2022/05/17 06:33:21;;;;;;;15.90;8.05;;;;;;;;;;5049433;28;20132;-28
2022/05/17 06:35:50;;;;;;;17.92;8.57;;;;;;;;;;5040145;28;20037;-28
2022/05/17 06:38:16;;;;;;;15.90;8.32;;;;;;;;;;5014048;28;20046;-29
2022/05/17 06:40:43;;;;;;;11.50;7.93;;;;;;;;;;5045454;28;20044;-29
2022/05/17 06:43:09;;;;;;;12.80;7.95;;;;;;;;;;5053907;28;20483;-29
2022/05/17 06:45:35;;;;;;;14.60;7.90;;;;;;;;;;5053598;28;20557;-30
2022/05/17 06:48:02;;;;;;;15.63;7.50;;;;;;;;;;5053468;28;20047;-29
2022/05/17 06:50:28;;;;;;;13.68;7.95;;;;;;;;;;5053558;28;20041;-30
2022/05/17 06:52:54;;;;;;;13.05;7.40;;;;;;;;;;5043622;28;20052;-29
2022/05/17 06:55:22;;;;;;;10.68;7.53;;;;;;;;;;5046997;28;20048;-30
2022/05/17 06:57:50;;;;;;;15.57;7.60;;;;;;;;;;5046787;28;20136;-29
2022/05/17 07:00:17;;;;;;;15.13;7.45;;;;;;;;;;5033015;28;20085;-28
2022/05/17 07:02:43;;;;;;;13.13;7.13;;;;;;;;;;5036005;28;20045;-30
2022/05/17 07:05:10;;;;;;;12.55;7.72;;;;;;;;;;5033119;28;20076;-28
2022/05/17 07:07:37;;;;;;;13.48;7.53;;;;;;;;;;5036897;28;20044;-29
2022/05/17 07:15:33;;;;;;;13.85;7.50;;;;;;;;;;5032686;28;20333;-29
2022/05/17 07:18:00;;;;;;;10.95;6.75;;;;;;;;;;5043348;28;20106;-30
2022/05/17 07:20:27;;;;;;;8.30;6.13;;;;;;;;;;5050049;28;20060;-30
2022/05/17 07:22:53;;;;;;;14.18;7.07;;;;;;;;;;5052868;28;20116;-29
2022/05/17 07:25:19;;;;;;;12.25;6.45;;;;;;;;;;5049957;28;20060;-29
2022/05/17 07:27:45;;;;;;;13.13;7.32;;;;;;;;;;5043781;28;20041;-29
2022/05/17 07:30:12;;;;;;;11.02;6.72;;;;;;;;;;5039221;28;20044;-29
2022/05/17 07:32:38;;;;;;;11.15;6.60;;;;;;;;;;5032184;28;20049;-29
2022/05/17 07:35:06;;;;;;;14.65;6.63;;;;;;;;;;5049219;28;20040;-29
2022/05/17 07:37:33;;;;;;;9.30;6.15;;;;;;;;;;5052539;28;20479;-29
2022/05/17 07:39:59;;;;;;;12.10;7.07;;;;;;;;;;5040393;28;20038;-30
2022/05/17 07:42:25;;;;;;;11.35;6.45;;;;;;;;;;5032068;28;20057;-29
2022/05/17 07:44:51;;;;;;;14.00;6.30;;;;;;;;;;5044476;28;20033;-28
2022/05/17 07:47:17;;;;;;;9.77;6.50;;;;;;;;;;5048404;28;20094;-28
2022/05/17 07:49:43;;;;;;;11.80;6.07;;;;;;;;;;5031357;28;20061;-28
2022/05/17 07:52:10;;;;;;;12.95;6.22;;;;;;;;;;5041260;28;20037;-30
2022/05/17 07:54:37;;;;;;;11.88;5.82;;;;;;;;;;5044349;28;20080;-29
2022/05/17 07:57:04;;;;;;;11.57;6.15;;;;;;;;;;5030207;28;20091;-30
2022/05/17 07:59:30;;;;;;;10.57;5.95;;;;;;;;;;5031468;28;20041;-29
2022/05/17 08:01:56;;;;;;;15.48;6.05;;;;;;;;;;5035918;28;20487;-29
2022/05/17 08:04:23;;;;;;;12.40;6.32;;;;;;;;;;5033666;28;20472;-32
2022/05/17 08:06:50;;;;;;;11.00;6.18;;;;;;;;;;5045467;28;20484;-30
2022/05/17 08:09:16;;;;;;;9.48;6.18;;;;;;;;;;5037176;28;20036;-30
2022/05/17 08:11:42;;;;;;;10.60;6.45;;;;;;;;;;5050715;28;20486;-30
2022/05/17 08:14:08;;;;;;;15.02;7.57;;;;;;;;;;5044868;28;20043;-29
2022/05/17 08:16:34;;;;;;;14.85;6.95;;;;;;;;;;5043831;28;20041;-30
2022/05/17 08:19:00;;;;;;;13.30;6.95;;;;;;;;;;5051694;28;20068;-30
2022/05/17 08:21:26;;;;;;;18.63;10.93;;;;;;;;;;5040934;28;20044;-29
2022/05/17 08:23:53;;;;;;;14.45;6.88;;;;;;;;;;5044423;28;20040;-29
2022/05/17 08:29:03;;;;;;;12.43;6.10;;;;;;;;;;5031618;28;20068;-29
2022/05/17 08:31:29;;;;;;;12.65;6.13;;;;;;;;;;5037930;28;20071;-31
2022/05/17 08:33:55;;;;;;;11.50;6.03;;;;;;;;;;5029627;28;20494;-30
2022/05/17 08:36:21;;;;;;;13.50;5.93;;;;;;;;;;5049244;28;20544;-30
2022/05/17 08:38:49;;;;;;;9.75;5.82;;;;;;;;;;5050978;28;20128;-31
2022/05/17 08:41:15;;;;;;;10.32;6.53;;;;;;;;;;5044662;28;20040;-29
2022/05/17 08:43:53;;;;;;;10.63;5.97;;;;;;;;;;5031635;28;20065;-31
2022/05/17 08:46:28;;;;;;;11.45;6.13;;;;;;;;;;5038071;28;20036;-30
2022/05/17 08:49:09;;;;;;;11.70;6.35;;;;;;;;;;5036399;28;20041;-30
2022/05/17 08:51:39;;;;;;;10.50;6.25;;;;;;;;;;5044184;28;20079;-30
2022/05/17 08:54:07;;;;;;;11.48;4.63;;;;;;;;;;5048385;28;20051;-30
2022/05/17 08:56:36;;;;;;;9.55;5.68;;;;;;;;;;5034523;28;20088;-30
2022/05/17 08:59:05;;;;;;;10.02;5.55;;;;;;;;;;5044265;28;20052;-30
2022/05/17 09:01:49;;;;;;;11.43;5.68;;;;;;;;;;5038476;28;20080;-30
2022/05/17 09:04:36;;;;;;;10.00;5.68;;;;;;;;;;5043997;28;20059;-30
2022/05/17 09:07:32;;;;;;;12.00;4.55;;;;;;;;;;5036812;28;20399;-30
2022/05/17 09:10:06;;;;;;;12.50;5.15;;;;;;;;;;4977131;28;20047;-29
2022/05/17 09:12:35;;;;;;;8.00;4.07;;;;;;;;;;5043909;28;20048;-30
2022/05/17 09:15:02;;;;;;;9.65;4.20;;;;;;;;;;5051164;28;20130;-31
2022/05/17 09:17:28;;;;;;;10.98;4.75;;;;;;;;;;5051232;28;20049;-30
2022/05/17 09:19:55;;;;;;;7.72;4.65;;;;;;;;;;5053757;28;20048;-30
2022/05/17 09:22:22;;;;;;;9.75;4.60;;;;;;;;;;5051786;28;20043;-29
2022/05/17 09:25:15;;;;;;;7.22;3.20;;;;;;;;;;5046601;28;20063;-29
2022/05/17 09:27:41;;;;;;;8.45;3.17;;;;;;;;;;5042403;28;20037;-30
2022/05/17 09:30:13;;;;;;;6.68;3.55;;;;;;;;;;5039845;28;20044;-30
2022/05/17 09:32:43;;;;;;;9.38;3.90;;;;;;;;;;5041944;28;20053;-30
2022/05/17 09:35:17;;;;;;;7.55;3.58;;;;;;;;;;5043202;28;20041;-31
2022/05/17 09:37:44;;;;;;;5.85;3.28;;;;;;;;;;5039393;28;20060;-30
2022/05/17 09:40:15;;;;;;;8.18;2.60;;;;;;;;;;5032200;28;20041;-32
2022/05/17 09:42:52;;;;;;;7.05;3.20;;;;;;;;;;5043421;28;20041;-31
2022/05/17 09:45:20;;;;;;;6.57;2.90;;;;;;;;;;5048837;28;20040;-30
2022/05/17 09:48:00;;;;;;;6.00;2.70;;;;;;;;;;5043918;28;20205;-32
2022/05/17 09:53:17;;;;;;;6.68;2.40;;;;;;;;;;5032503;28;20041;-32
2022/05/17 09:55:48;;;;;;;6.20;2.72;;;;;;;;;;5037046;28;20123;-31
2022/05/17 09:58:34;;;;;;;7.82;3.10;;;;;;;;;;5041592;28;20446;-30
2022/05/17 10:01:01;;;;;;;9.98;2.95;;;;;;;;;;5042270;28;20053;-30
2022/05/17 10:03:34;;;;;;;6.45;2.50;;;;;;;;;;5052088;28;20048;-31
2022/05/17 10:06:20;;;;;;;8.18;2.42;;;;;;;;;;5054430;28;20156;-32
2022/05/17 10:08:58;;;;;;;5.30;2.13;;;;;;;;;;5042977;28;20048;-32
2022/05/17 10:11:25;;;;;;;6.57;2.35;;;;;;;;;;5054512;28;20036;-32
2022/05/17 10:13:58;;;;;;;6.47;2.33;;;;;;;;;;5054528;28;20048;-31
2022/05/17 10:16:38;;;;;;;9.10;2.58;;;;;;;;;;4996441;28;20073;-33
2022/05/17 10:19:31;;;;;;;6.18;2.60;;;;;;;;;;5044691;28;20033;-32
2022/05/17 10:22:09;;;;;;;9.23;2.90;;;;;;;;;;5053481;28;20482;-31
2022/05/17 10:24:58;;;;;;;6.55;3.00;;;;;;;;;;5054873;28;20567;-31
2022/05/17 10:27:31;;;;;;;6.07;2.67;;;;;;;;;;5034467;28;20441;-31
2022/05/17 10:30:01;;;;;;;7.60;2.85;;;;;;;;;;5033638;28;20112;-31
2022/05/17 10:32:27;;;;;;;7.13;2.72;;;;;;;;;;5041333;28;20033;-32
2022/05/17 10:34:58;;;;;;;7.30;3.22;;;;;;;;;;5054537;28;20398;-31
2022/05/17 10:37:47;;;;;;;7.60;2.95;;;;;;;;;;5053945;28;20091;-32
2022/05/17 10:40:14;;;;;;;8.95;2.55;;;;;;;;;;5042511;28;20041;-31
2022/05/17 10:42:42;;;;;;;6.25;2.70;;;;;;;;;;5053150;28;20513;-29
2022/05/17 10:45:11;;;;;;;4.78;2.42;;;;;;;;;;5050563;28;20044;-31
2022/05/17 10:47:40;;;;;;;6.72;2.70;;;;;;;;;;5033591;28;20044;-30
2022/05/17 10:50:06;;;;;;;6.13;2.80;;;;;;;;;;5031614;28;20546;-31
2022/05/17 10:52:52;;;;;;;6.75;2.70;;;;;;;;;;5047534;28;20041;-31
2022/05/17 10:55:18;;;;;;;6.78;2.47;;;;;;;;;;5001071;28;20049;-30
2022/05/17 10:57:44;;;;;;;7.57;2.90;;;;;;;;;;5041562;28;20054;-30
2022/05/17 11:00:18;;;;;;;9.52;3.70;;;;;;;;;;5048541;28;20071;-30
2022/05/17 11:03:02;;;;;;;9.02;4.15;;;;;;;;;;5047132;28;20041;-32
2022/05/17 11:05:34;;;;;;;10.82;3.80;;;;;;;;;;5037604;28;20048;-32
2022/05/17 11:08:25;;;;;;;7.13;3.45;;;;;;;;;;5042167;28;20572;-31
2022/05/17 11:11:09;;;;;;;10.55;4.63;;;;;;;;;;5030433;28;20125;-30
2022/05/17 11:13:41;;;;;;;8.85;4.55;;;;;;;;;;5051770;28;20052;-32
2022/05/17 11:16:13;;;;;;;11.93;3.72;;;;;;;;;;5052595;28;20090;-31
2022/05/17 11:18:43;;;;;;;7.65;3.55;;;;;;;;;;5052347;28;20102;-30
2022/05/17 11:21:26;;;;;;;9.80;4.18;;;;;;;;;;5035312;28;20442;-30
2022/05/17 11:24:11;;;;;;;9.93;5.18;;;;;;;;;;5037202;28;20033;-30
2022/05/17 11:26:55;;;;;;;7.35;4.28;;;;;;;;;;5044213;28;20446;-32
2022/05/17 11:29:34;;;;;;;8.75;4.93;;;;;;;;;;5040798;28;20376;-30
2022/05/17 11:32:01;;;;;;;9.05;5.30;;;;;;;;;;5044570;28;20103;-29
2022/05/17 11:34:35;;;;;;;10.38;5.45;;;;;;;;;;5045415;28;20069;-29
2022/05/17 11:37:08;;;;;;;9.07;4.43;;;;;;;;;;5044071;28;20126;-31
2022/05/17 11:39:37;;;;;;;8.95;4.63;;;;;;;;;;5020242;28;20496;-30
2022/05/17 11:42:10;;;;;;;8.93;5.15;;;;;;;;;;5044931;28;20060;-30
2022/05/17 11:44:41;;;;;;;10.38;5.32;;;;;;;;;;5040296;28;20087;-30
2022/05/17 11:47:26;;;;;;;13.45;6.05;;;;;;;;;;5036079;28;20064;-31
2022/05/17 11:49:52;;;;;;;9.57;5.63;;;;;;;;;;5042091;28;20037;-31
2022/05/17 11:52:27;;;;;;;15.88;6.05;;;;;;;;;;5045154;28;20129;-30
2022/05/17 11:54:53;;;;;;;11.35;5.93;;;;;;;;;;5038391;28;20171;-30
2022/05/17 11:57:26;;;;;;;10.13;5.95;;;;;;;;;;5048666;28;20048;-30
2022/05/17 11:59:55;;;;;;;10.20;6.03;;;;;;;;;;5037685;28;20041;-30
2022/05/17 12:02:40;;;;;;;11.13;6.00;;;;;;;;;;5042538;28;20569;-31
2022/05/17 12:05:09;;;;;;;9.05;5.85;;;;;;;;;;5049239;28;20036;-31
2022/05/17 12:07:36;;;;;;;8.30;5.65;;;;;;;;;;5047966;28;20402;-30
2022/05/17 12:10:15;;;;;;;9.93;6.85;;;;;;;;;;5047684;28;20112;-30
2022/05/17 12:12:44;;;;;;;9.50;5.70;;;;;;;;;;5043739;28;20403;-30
2022/05/17 12:15:13;;;;;;;12.18;5.88;;;;;;;;;;5047178;28;20048;-30
2022/05/17 12:17:46;;;;;;;8.50;5.13;;;;;;;;;;5041405;28;20048;-29
2022/05/17 12:20:12;;;;;;;10.98;4.93;;;;;;;;;;5050916;28;20482;-29
2022/05/17 12:22:57;;;;;;;8.98;5.38;;;;;;;;;;5040375;28;20044;-30
2022/05/17 12:25:31;;;;;;;10.10;4.90;;;;;;;;;;5045488;28;20035;-30
2022/05/17 12:27:58;;;;;;;12.15;4.97;;;;;;;;;;5047360;28;20041;-29
2022/05/17 12:33:17;;;;;;;11.38;5.70;;;;;;;;;;5040326;28;20098;-31
2022/05/17 12:35:43;;;;;;;10.27;5.35;;;;;;;;;;5042997;28;20163;-31
2022/05/17 12:43:46;;;;;;;11.25;6.30;;;;;;;;;;5044890;28;20049;-31
2022/05/17 12:46:15;;;;;;;11.57;5.88;;;;;;;;;;5047485;28;20033;-30
2022/05/17 12:48:41;;;;;;;14.27;6.18;;;;;;;;;;5051486;28;20041;-31
2022/05/17 12:51:09;;;;;;;12.90;5.95;;;;;;;;;;5016358;28;20521;-30
2022/05/17 12:53:38;;;;;;;9.95;6.03;;;;;;;;;;5049865;28;20048;-30
2022/05/17 12:56:09;;;;;;;9.63;5.35;;;;;;;;;;5050725;28;20037;-30
2022/05/17 12:58:37;;;;;;;10.48;5.57;;;;;;;;;;5041934;28;20072;-30
2022/05/17 13:01:05;;;;;;;11.43;5.60;;;;;;;;;;5046072;28;20037;-30
2022/05/17 13:03:32;;;;;;;10.57;6.13;;;;;;;;;;5030059;28;20113;-31
2022/05/17 13:06:02;;;;;;;8.15;4.70;;;;;;;;;;5032037;28;20514;-30
2022/05/17 13:08:30;;;;;;;7.15;3.70;;;;;;;;;;5031319;28;20042;-31
2022/05/17 13:11:05;;;;;;;7.53;3.35;;;;;;;;;;5031825;28;20049;-31
2022/05/17 13:13:32;;;;;;;6.85;3.75;;;;;;;;;;5017250;28;20043;-29
2022/05/17 13:16:00;;;;;;;7.35;4.05;;;;;;;;;;5051705;28;20094;-31
2022/05/17 13:18:33;;;;;;;6.90;3.67;;;;;;;;;;5051385;28;20041;-31
2022/05/17 13:21:00;;;;;;;5.30;3.20;;;;;;;;;;5051079;28;20487;-31
2022/05/17 13:23:27;;;;;;;6.88;3.05;;;;;;;;;;5051190;28;20446;-33
2022/05/17 13:25:55;;;;;;;6.15;3.25;;;;;;;;;;5032097;28;20096;-30
2022/05/17 13:28:29;;;;;;;3.92;2.22;;;;;;;;;;5031749;28;20430;-32
2022/05/17 13:31:15;;;;;;;4.07;2.35;;;;;;;;;;5038554;28;20033;-32
2022/05/17 13:34:00;;;;;;;3.72;2.60;;;;;;;;;;5032326;28;20509;-32
2022/05/17 13:36:38;;;;;;;4.20;1.90;;;;;;;;;;5043417;28;20414;-31
2022/05/17 13:39:16;;;;;;;3.35;1.60;;;;;;;;;;5051866;28;20067;-31
2022/05/17 13:41:42;;;;;;;5.65;1.80;;;;;;;;;;5051193;28;20471;-32
2022/05/17 13:44:09;;;;;;;6.32;2.35;;;;;;;;;;5031238;28;20546;-34
2022/05/17 13:46:42;;;;;;;3.72;1.90;;;;;;;;;;5034583;28;20049;-35
2022/05/17 13:49:14;;;;;;;2.45;1.77;;;;;;;;;;5041653;28;20042;-34
2022/05/17 13:51:40;;;;;;;5.00;1.92;;;;;;;;;;5036120;28;20033;-32
2022/05/17 13:54:12;;;;;;;4.63;2.42;;;;;;;;;;5047778;28;20051;-34
2022/05/17 13:56:40;;;;;;;4.60;1.88;;;;;;;;;;5044290;28;20041;-33
2022/05/17 13:59:06;;;;;;;3.45;1.88;;;;;;;;;;5048316;28;20048;-32
2022/05/17 14:01:34;;;;;;;5.03;1.98;;;;;;;;;;5040438;28;20046;-33
2022/05/17 14:04:23;;;;;;;3.67;2.00;;;;;;;;;;5040860;28;20099;-34
2022/05/17 14:06:54;;;;;;;2.75;1.60;;;;;;;;;;5041835;28;20103;-35
2022/05/17 14:12:11;;;;;;;2.80;1.80;;;;;;;;;;5035032;28;20411;-33
2022/05/17 14:14:37;;;;;;;6.72;2.15;;;;;;;;;;5034088;28;20044;-35
2022/05/17 14:17:04;;;;;;;3.30;1.73;;;;;;;;;;5035882;28;20120;-33
2022/05/17 14:19:34;;;;;;;3.75;2.38;;;;;;;;;;5037691;28;20037;-33
2022/05/17 14:22:03;;;;;;;2.30;1.70;;;;;;;;;;5051396;28;20045;-33
2022/05/17 14:24:29;;;;;;;2.85;1.67;;;;;;;;;;5045811;28;20529;-35
2022/05/17 14:26:57;;;;;;;3.78;1.88;;;;;;;;;;5054086;28;20124;-34
2022/05/17 14:29:25;;;;;;;1.85;1.10;;;;;;;;;;5043370;28;20033;-33
2022/05/17 14:31:52;;;;;;;4.70;1.63;;;;;;;;;;5040903;28;20119;-32
2022/05/17 14:34:23;;;;;;;3.35;1.67;;;;;;;;;;5038530;28;20076;-34
2022/05/17 14:36:50;;;;;;;4.60;2.10;;;;;;;;;;5030263;28;20071;-32
2022/05/17 14:39:16;;;;;;;2.55;1.75;;;;;;;;;;5030989;28;20136;-32
2022/05/17 14:41:43;;;;;;;4.10;1.83;;;;;;;;;;5030660;28;20656;-33
2022/05/17 14:44:10;;;;;;;2.75;1.70;;;;;;;;;;5033623;28;20032;-33
2022/05/17 14:46:36;;;;;;;3.22;1.90;;;;;;;;;;5040809;28;20044;-34
2022/05/17 14:49:02;;;;;;;4.53;1.88;;;;;;;;;;5050315;28;20041;-36
2022/05/17 14:51:29;;;;;;;4.10;1.90;;;;;;;;;;5047154;28;20250;-34
2022/05/17 14:53:56;;;;;;;3.47;2.08;;;;;;;;;;5050256;28;20041;-33
2022/05/17 14:56:22;;;;;;;6.68;2.30;;;;;;;;;;5043224;28;20041;-34
2022/05/17 14:58:48;;;;;;;4.00;2.20;;;;;;;;;;5036994;28;20049;-34
2022/05/17 15:01:18;;;;;;;5.40;2.33;;;;;;;;;;5050151;28;20056;-33
2022/05/17 15:03:46;;;;;;;5.25;2.63;;;;;;;;;;5036699;28;20118;-33
2022/05/17 15:06:13;;;;;;;5.43;2.97;;;;;;;;;;5047938;28;20033;-34